Ana Sayfa
METAR-TAF:

METAR-TAF

Havaalanları :

Çengdu Shuangliu Uluslararası Havalimanı

Çengdu, Çin

Enlem: 30-40N, Boylam: 104-01E, yükseklik: 508 m

Güncel hava durumu gözlemi

Rapor saat 09:00 UTC de 29 dakika önce yapıldı.
Rüzgar değişken yönden 2 kt
Sıcaklık 15°C
Nem 59%
Basınç 1018 hPa
Görüş mesafesi 10 km veya daha fazla
2600 ft yükseklikte parçalı bulutlu

METAR: ZUUU 240900Z VRB01MPS 9999 SCT026 15/07 Q1018 NOSIG

Saat: 17:29 (09:29 UTC)

Tahmin

Rapor saat 02:14 UTC de 7 saat ve 15 dakika önce yapıldı.
Ayın 24'si saat 06 UTC'den ayın 25'si saat 06 UTC'ye kadar geçerli Tahmin
Rüzgar kuzeydan 6 kt
Görüş mesafesi: 5000 m
5000 ft yükseklikte parçalı bulutlu
Pus
Dönüşüyor
ayın 24'si saat 22 UTC'den ayın 24'si saat 23 UTC'ye kadar
Görüş mesafesi: 2000 m
Dönüşüyor
ayın 25'si saat 01 UTC'den ayın 25'si saat 02 UTC'ye kadar
Görüş mesafesi: 3000 m

TAF: ZUUU 240214Z 2406/2506 36003MPS 5000 BR SCT050 TX16/2407Z TN08/2423Z BECMG 2422/2423 2000 BECMG 2501/2502 3000

4.000'den fazla havaalanı için hava durumu gözlemleri ve tahminleri (METAR ve TAF raporları).

Kullanılabilir istasyonlar harita üzerinde sarı ve kırmızı noktalarla gösterilir.

İstasyonun adını görmek için fareyi noktanın üzerinde gezdirin.

Sonrasında hava gözlem ve tahminlerini görmek için tıklayın.

Haritayı değiştirmek için: yaklaştırmak için siyah artı işaretli yeşil düğmeye ve uzaklaştırmak için de eksi işaretli düğmeye hızla tıklayın; bitişik haritalar için yeşil okları kullanın.


METAR-TAF: